Time;durP1;ratioP1;P1;durP2;ratioP2;P2;SDS_P1;SDS_P2;PMS_P1;PMS_P2;Temp;Humidity;BMP_temperature;BMP_pressure;BME280_temperature;BME280_humidity;BME280_pressure;Samples;Min_cycle;Max_cycle;Signal;HPM_P1;HPM_P2
2023/03/19 00:01:08;;;;;;;18.00;13.48;;;11.60;99.90;;;;;;5091083;28;20075;-89
2023/03/19 00:03:34;;;;;;;16.75;11.93;;;11.60;99.90;;;;;;5074813;28;20036;-89
2023/03/19 00:06:00;;;;;;;16.52;12.90;;;11.60;99.90;;;;;;5074061;28;20028;-89
2023/03/19 00:08:26;;;;;;;19.50;12.73;;;11.60;99.90;;;;;;5074402;28;20200;-89
2023/03/19 00:10:52;;;;;;;16.70;12.13;;;11.60;99.90;;;;;;5073861;28;20599;-88
2023/03/19 00:13:19;;;;;;;18.63;13.02;;;11.60;99.90;;;;;;5100267;28;20127;-89
2023/03/19 00:15:46;;;;;;;16.63;12.52;;;11.50;99.90;;;;;;5097685;28;20472;-88
2023/03/19 00:18:12;;;;;;;16.23;11.93;;;11.60;99.90;;;;;;5081139;28;20039;-88
2023/03/19 00:20:37;;;;;;;18.27;11.75;;;11.60;99.90;;;;;;5102702;28;20040;-89
2023/03/19 00:23:03;;;;;;;15.70;11.55;;;11.60;99.90;;;;;;5108285;28;20155;-89
2023/03/19 00:25:29;;;;;;;16.75;11.73;;;11.60;99.90;;;;;;5092488;28;20100;-88
2023/03/19 00:27:54;;;;;;;15.38;11.38;;;11.60;99.90;;;;;;5091024;28;20048;-88
2023/03/19 00:30:21;;;;;;;16.67;11.60;;;11.60;99.90;;;;;;5089916;28;20105;-89
2023/03/19 00:32:47;;;;;;;15.15;11.55;;;11.60;99.90;;;;;;5074113;28;20067;-88
2023/03/19 00:35:13;;;;;;;16.52;11.32;;;11.70;99.90;;;;;;5090562;28;20126;-89
2023/03/19 00:37:39;;;;;;;15.15;10.98;;;11.70;99.90;;;;;;5073602;28;20086;-89
2023/03/19 00:40:06;;;;;;;15.57;10.80;;;11.70;99.90;;;;;;5074149;28;20039;-89
2023/03/19 00:42:32;;;;;;;16.88;12.02;;;11.70;99.90;;;;;;5081932;28;20039;-89
2023/03/19 00:44:58;;;;;;;14.13;10.70;;;11.70;99.90;;;;;;5090444;28;20081;-89
2023/03/19 00:47:24;;;;;;;16.90;10.85;;;11.70;99.90;;;;;;5073605;28;20048;-88
2023/03/19 00:49:50;;;;;;;15.98;12.13;;;11.70;99.90;;;;;;5074106;28;20517;-89
2023/03/19 00:52:15;;;;;;;17.42;12.63;;;11.70;99.90;;;;;;5073787;28;20032;-89
2023/03/19 00:54:41;;;;;;;15.18;11.02;;;11.70;99.90;;;;;;5073887;28;20477;-89
2023/03/19 00:57:07;;;;;;;16.75;12.13;;;11.70;99.90;;;;;;5073734;28;20040;-90
2023/03/19 00:59:33;;;;;;;14.38;10.38;;;11.70;99.90;;;;;;5089336;28;20044;-89
2023/03/19 01:01:58;;;;;;;17.25;15.45;;;11.70;99.90;;;;;;5073602;28;20453;-89
2023/03/19 01:04:24;;;;;;;16.48;10.98;;;11.70;99.90;;;;;;5072619;28;20568;-90
2023/03/19 01:06:50;;;;;;;13.73;9.52;;;11.70;99.90;;;;;;5073318;28;20457;-89
2023/03/19 01:09:16;;;;;;;15.43;10.77;;;11.70;99.90;;;;;;5090171;28;20047;-89
2023/03/19 01:11:42;;;;;;;14.63;9.55;;;11.70;99.90;;;;;;5072849;28;20036;-90
2023/03/19 01:14:08;;;;;;;13.35;9.07;;;11.70;99.90;;;;;;5073097;28;20032;-89
2023/03/19 01:16:33;;;;;;;14.15;9.20;;;11.70;99.90;;;;;;5072937;28;20036;-89
2023/03/19 01:19:00;;;;;;;14.10;9.18;;;11.70;99.90;;;;;;5072935;28;20040;-89
2023/03/19 01:21:29;;;;;;;13.85;9.70;;;11.70;99.90;;;;;;5089779;28;20039;-90
2023/03/19 01:23:56;;;;;;;13.10;8.93;;;11.70;99.90;;;;;;5073184;28;20089;-89
2023/03/19 01:26:21;;;;;;;13.05;8.32;;;11.70;99.90;;;;;;5073390;28;20040;-89
2023/03/19 01:28:47;;;;;;;15.75;9.38;;;11.70;99.90;;;;;;5072162;28;20100;-89
2023/03/19 01:31:13;;;;;;;11.95;8.80;;;11.70;99.90;;;;;;5090451;28;20477;-89
2023/03/19 01:33:38;;;;;;;14.73;9.70;;;11.70;99.90;;;;;;5079536;28;20032;-89
2023/03/19 01:36:04;;;;;;;15.57;10.15;;;11.70;99.90;;;;;;5073548;28;20036;-89
2023/03/19 01:38:30;;;;;;;15.23;10.18;;;11.70;99.90;;;;;;5071865;28;20111;-89
2023/03/19 01:40:56;;;;;;;15.35;13.43;;;11.70;99.90;;;;;;5072341;28;20032;-89
2023/03/19 01:43:28;;;;;;;13.82;8.70;;;11.70;99.90;;;;;;5072963;28;20051;-89
2023/03/19 01:45:59;;;;;;;12.18;8.32;;;11.80;99.90;;;;;;5073748;28;20072;-89
2023/03/19 01:48:34;;;;;;;13.07;8.48;;;11.70;99.90;;;;;;5068425;28;20047;-90
2023/03/19 01:51:00;;;;;;;14.07;8.63;;;11.70;99.90;;;;;;5076708;28;20034;-90
2023/03/19 01:53:32;;;;;;;12.32;7.88;;;11.70;99.90;;;;;;5076436;28;20658;-89
2023/03/19 01:56:20;;;;;;;11.77;6.63;;;11.70;99.90;;;;;;5077227;28;20035;-90
2023/03/19 01:58:48;;;;;;;12.10;7.25;;;11.80;99.90;;;;;;5093093;28;20040;-90
2023/03/19 02:01:14;;;;;;;12.98;7.85;;;11.70;99.90;;;;;;5076868;28;20040;-90
2023/03/19 02:03:41;;;;;;;12.80;8.35;;;11.70;99.90;;;;;;5076780;28;20051;-90
2023/03/19 02:06:09;;;;;;;13.18;7.97;;;11.70;99.90;;;;;;5092171;28;20043;-89
2023/03/19 02:08:37;;;;;;;12.93;7.75;;;11.70;99.90;;;;;;5076135;28;20497;-90
2023/03/19 02:11:04;;;;;;;12.18;7.55;;;11.70;99.90;;;;;;5076006;28;20432;-90
2023/03/19 02:13:30;;;;;;;12.35;7.35;;;11.70;99.90;;;;;;5076111;28;20067;-90
2023/03/19 02:15:55;;;;;;;13.85;8.05;;;11.70;99.90;;;;;;5092134;28;20079;-89
2023/03/19 02:18:22;;;;;;;13.93;7.97;;;11.70;99.90;;;;;;5092874;28;20032;-90
2023/03/19 02:20:59;;;;;;;11.20;7.68;;;11.70;99.90;;;;;;5075909;28;20086;-90
2023/03/19 02:23:46;;;;;;;11.82;7.15;;;11.60;99.90;;;;;;5076201;28;20043;-90
2023/03/19 02:26:17;;;;;;;11.50;6.38;;;11.60;99.90;;;;;;5076410;28;20050;-90
2023/03/19 02:28:46;;;;;;;11.10;6.50;;;11.60;99.90;;;;;;5075348;28;20115;-90
2023/03/19 02:31:13;;;;;;;11.45;5.78;;;11.50;99.90;;;;;;5076160;28;20102;-90
2023/03/19 02:33:39;;;;;;;10.63;5.80;;;11.50;99.90;;;;;;5075984;28;20077;-90
2023/03/19 02:36:09;;;;;;;9.60;5.78;;;11.50;99.90;;;;;;5092958;28;20409;-91
2023/03/19 02:38:36;;;;;;;10.85;6.35;;;11.50;99.90;;;;;;5092497;28;20059;-90
2023/03/19 02:41:05;;;;;;;10.32;5.75;;;11.40;99.90;;;;;;5075714;28;20047;-90
2023/03/19 02:43:36;;;;;;;11.25;5.72;;;11.40;99.90;;;;;;5075276;28;20401;-90
2023/03/19 02:46:03;;;;;;;12.75;6.40;;;11.40;99.90;;;;;;5075349;28;20040;-90
2023/03/19 02:48:29;;;;;;;10.30;5.97;;;11.40;99.90;;;;;;5075040;28;20039;-91
2023/03/19 02:50:55;;;;;;;10.73;6.63;;;11.40;99.90;;;;;;5074446;28;20123;-91
2023/03/19 02:53:21;;;;;;;10.13;5.22;;;11.40;99.90;;;;;;5075245;28;20124;-90
2023/03/19 02:55:46;;;;;;;13.10;6.20;;;11.30;99.90;;;;;;5075083;28;20089;-91
2023/03/19 02:58:12;;;;;;;11.05;5.28;;;11.30;99.90;;;;;;5090559;28;20039;-90
2023/03/19 03:00:38;;;;;;;9.90;5.57;;;11.30;99.90;;;;;;5075880;28;20040;-90
2023/03/19 03:03:05;;;;;;;10.43;5.50;;;11.30;99.90;;;;;;5091569;28;20043;-90
2023/03/19 03:05:31;;;;;;;10.50;5.10;;;11.30;99.90;;;;;;5092161;28;20046;-90
2023/03/19 03:07:57;;;;;;;10.30;5.65;;;11.40;99.90;;;;;;5074586;28;20036;-90
2023/03/19 03:10:23;;;;;;;10.88;4.97;;;11.30;99.90;;;;;;5075159;28;20043;-90
2023/03/19 03:12:48;;;;;;;8.95;4.80;;;11.30;99.90;;;;;;5074629;28;20086;-90
2023/03/19 03:15:14;;;;;;;8.77;4.20;;;11.30;99.90;;;;;;5091732;28;20036;-90
2023/03/19 03:17:41;;;;;;;8.82;4.10;;;11.30;99.90;;;;;;5091672;28;20040;-90
2023/03/19 03:20:08;;;;;;;7.82;3.85;;;11.30;99.90;;;;;;5073958;28;20036;-90
2023/03/19 03:22:34;;;;;;;7.65;3.33;;;11.30;99.90;;;;;;5074180;28;20178;-89
2023/03/19 03:25:00;;;;;;;8.32;4.07;;;11.20;99.90;;;;;;5073939;28;20050;-90
2023/03/19 03:27:25;;;;;;;8.00;3.05;;;11.20;99.90;;;;;;5072670;28;20040;-90
2023/03/19 03:29:51;;;;;;;8.10;3.65;;;11.20;99.90;;;;;;5090790;28;20140;-89
2023/03/19 03:32:17;;;;;;;5.85;2.50;;;11.20;99.90;;;;;;5073960;28;20028;-90
2023/03/19 03:34:45;;;;;;;6.60;3.15;;;11.20;99.90;;;;;;5091565;28;20123;-89
2023/03/19 03:37:10;;;;;;;7.07;3.20;;;11.20;99.90;;;;;;5074637;28;20036;-89
2023/03/19 03:39:36;;;;;;;6.30;2.80;;;11.10;99.90;;;;;;5073630;28;20036;-90
2023/03/19 03:42:03;;;;;;;6.65;2.92;;;11.10;99.90;;;;;;5074645;28;20382;-90
2023/03/19 03:44:28;;;;;;;6.95;2.58;;;11.10;99.90;;;;;;5074247;28;20503;-90
2023/03/19 03:46:54;;;;;;;6.25;2.70;;;11.00;99.90;;;;;;5091605;28;20509;-90
2023/03/19 03:49:20;;;;;;;6.90;2.50;;;11.00;99.90;;;;;;5090970;28;20036;-90
2023/03/19 03:51:45;;;;;;;5.72;2.30;;;11.00;99.90;;;;;;5074158;28;20036;-89
2023/03/19 03:54:11;;;;;;;5.47;2.40;;;11.00;99.90;;;;;;5074609;28;20043;-90
2023/03/19 03:56:37;;;;;;;6.60;2.35;;;11.00;99.90;;;;;;5074538;28;20413;-89
2023/03/19 03:59:02;;;;;;;7.97;2.42;;;11.00;99.90;;;;;;5074670;28;20040;-89
2023/03/19 04:01:28;;;;;;;8.07;2.83;;;11.00;99.90;;;;;;5073899;28;20489;-90
2023/03/19 04:03:54;;;;;;;5.47;2.30;;;11.00;99.90;;;;;;5073404;28;20040;-89
2023/03/19 04:06:22;;;;;;;7.20;2.70;;;11.00;99.90;;;;;;5073521;28;20516;-89
2023/03/19 04:08:48;;;;;;;6.15;2.53;;;10.90;99.90;;;;;;5089113;28;20040;-89
2023/03/19 04:11:14;;;;;;;6.03;2.38;;;10.90;99.90;;;;;;5073921;28;20039;-89
2023/03/19 04:13:40;;;;;;;7.10;2.80;;;11.00;99.90;;;;;;5073845;28;20175;-89
2023/03/19 04:16:08;;;;;;;7.15;2.92;;;10.90;99.90;;;;;;5072905;28;20208;-89
2023/03/19 04:18:35;;;;;;;5.63;2.33;;;11.00;99.90;;;;;;5090508;28;20044;-89
2023/03/19 04:21:02;;;;;;;6.20;2.53;;;11.00;99.90;;;;;;5091395;28;20046;-90
2023/03/19 04:23:28;;;;;;;6.63;2.72;;;11.00;99.90;;;;;;5074075;28;20059;-89
2023/03/19 04:25:59;;;;;;;7.13;3.20;;;11.00;99.90;;;;;;5073756;28;20481;-89
2023/03/19 04:28:24;;;;;;;7.38;2.83;;;11.00;99.90;;;;;;5072698;28;20032;-89
2023/03/19 04:30:50;;;;;;;8.65;3.00;;;11.00;99.90;;;;;;5090104;28;20047;-89
2023/03/19 04:33:16;;;;;;;7.75;3.28;;;11.00;99.90;;;;;;5089153;28;20118;-89
2023/03/19 04:35:42;;;;;;;8.18;3.35;;;11.00;99.90;;;;;;5073197;28;20039;-89
2023/03/19 04:38:08;;;;;;;9.20;3.97;;;11.00;99.90;;;;;;5090223;28;20046;-89
2023/03/19 04:40:34;;;;;;;6.78;3.22;;;11.00;99.90;;;;;;5073280;28;20040;-89
2023/03/19 04:43:00;;;;;;;8.45;3.42;;;11.00;99.90;;;;;;5074176;28;20076;-89
2023/03/19 04:45:26;;;;;;;7.18;3.45;;;11.00;99.90;;;;;;5090611;28;20070;-90
2023/03/19 04:47:51;;;;;;;7.85;3.60;;;11.00;99.90;;;;;;5073455;28;20039;-90
2023/03/19 04:50:17;;;;;;;8.30;3.13;;;11.00;99.90;;;;;;5090627;28;20408;-90
2023/03/19 04:52:43;;;;;;;7.43;3.30;;;11.00;99.90;;;;;;5073206;28;20040;-90
2023/03/19 04:55:09;;;;;;;9.15;3.80;;;11.00;99.90;;;;;;5074109;28;20085;-90
2023/03/19 04:57:35;;;;;;;8.63;3.80;;;11.00;99.90;;;;;;5073679;28;20028;-90
2023/03/19 05:00:01;;;;;;;8.75;3.90;;;11.00;99.90;;;;;;5072808;28;20537;-89
2023/03/19 05:02:27;;;;;;;9.98;4.05;;;11.00;99.90;;;;;;5073330;28;20044;-89
2023/03/19 05:04:52;;;;;;;9.57;3.85;;;10.90;99.90;;;;;;5072932;28;20043;-89
2023/03/19 05:07:18;;;;;;;8.25;3.78;;;11.00;99.90;;;;;;5072644;28;20040;-89
2023/03/19 05:09:45;;;;;;;6.88;3.38;;;10.90;99.90;;;;;;5089561;28;20056;-89
2023/03/19 05:12:11;;;;;;;8.68;3.65;;;10.90;99.90;;;;;;5089450;28;20051;-90
2023/03/19 05:14:37;;;;;;;8.20;3.38;;;10.90;99.90;;;;;;5089568;28;20040;-89
2023/03/19 05:17:02;;;;;;;8.27;3.20;;;10.90;99.90;;;;;;5073092;28;20043;-89
2023/03/19 05:19:28;;;;;;;7.57;3.75;;;10.80;99.90;;;;;;5073191;28;20040;-89
2023/03/19 05:21:56;;;;;;;7.50;3.53;;;10.80;99.90;;;;;;5075661;28;20046;-90
2023/03/19 05:24:22;;;;;;;8.18;3.65;;;10.80;99.90;;;;;;5094080;28;20039;-89
2023/03/19 05:26:48;;;;;;;7.72;3.28;;;10.70;99.90;;;;;;5094832;28;20101;-89
2023/03/19 05:29:14;;;;;;;9.27;3.85;;;10.70;99.90;;;;;;5077199;28;20244;-89
2023/03/19 05:31:40;;;;;;;10.82;4.65;;;10.70;99.90;;;;;;5077253;28;20040;-89
2023/03/19 05:34:06;;;;;;;9.57;3.92;;;10.70;99.90;;;;;;5077598;28;20097;-89
2023/03/19 05:36:33;;;;;;;8.18;4.13;;;10.60;99.90;;;;;;5093512;28;20471;-90
2023/03/19 05:38:58;;;;;;;8.82;3.80;;;10.60;99.90;;;;;;5077022;28;20040;-89
2023/03/19 05:41:24;;;;;;;7.88;3.63;;;10.60;99.90;;;;;;5093585;28;20059;-89
2023/03/19 05:43:50;;;;;;;8.13;3.95;;;10.60;99.90;;;;;;5077184;28;20039;-89
2023/03/19 05:46:15;;;;;;;9.07;4.05;;;10.60;99.90;;;;;;5092704;28;20097;-89
2023/03/19 05:48:41;;;;;;;8.63;3.85;;;10.60;99.90;;;;;;5075284;28;20123;-89
2023/03/19 05:51:07;;;;;;;8.70;4.10;;;10.60;99.90;;;;;;5076144;28;20040;-89
2023/03/19 05:53:33;;;;;;;9.90;4.28;;;10.60;99.90;;;;;;5092749;28;20591;-89
2023/03/19 05:55:59;;;;;;;8.82;4.15;;;10.60;99.90;;;;;;5077038;28;20119;-89
2023/03/19 05:58:25;;;;;;;7.68;3.33;;;10.60;99.90;;;;;;5076480;28;20070;-89
2023/03/19 06:00:55;;;;;;;8.38;4.15;;;10.60;99.90;;;;;;5077022;28;20180;-89
2023/03/19 06:03:21;;;;;;;9.32;3.58;;;10.60;99.90;;;;;;5094024;28;20509;-88
2023/03/19 06:05:50;;;;;;;8.27;4.00;;;10.60;99.90;;;;;;5074781;28;20562;-89
2023/03/19 06:08:17;;;;;;;8.63;4.47;;;10.60;99.90;;;;;;5075789;28;20044;-89
2023/03/19 06:10:43;;;;;;;9.43;4.00;;;10.70;99.90;;;;;;5074510;28;20043;-89
2023/03/19 06:13:08;;;;;;;7.63;4.15;;;10.70;99.90;;;;;;5092238;28;20040;-88
2023/03/19 06:15:34;;;;;;;8.65;4.38;;;10.70;99.90;;;;;;5092489;28;20131;-88
2023/03/19 06:18:00;;;;;;;8.68;4.10;;;10.70;99.90;;;;;;5074655;28;20497;-89
2023/03/19 06:20:26;;;;;;;8.48;4.07;;;10.70;99.90;;;;;;5093024;28;20497;-89
2023/03/19 06:22:52;;;;;;;8.35;4.55;;;10.70;99.90;;;;;;5075965;28;20036;-89
2023/03/19 06:25:17;;;;;;;10.23;4.18;;;10.70;99.90;;;;;;5075731;28;20044;-89
2023/03/19 06:27:43;;;;;;;9.63;4.18;;;10.80;99.90;;;;;;5075554;28;20036;-89
2023/03/19 06:30:09;;;;;;;9.02;3.85;;;10.80;99.90;;;;;;5075449;28;20097;-89
2023/03/19 06:32:35;;;;;;;8.38;4.13;;;10.80;99.90;;;;;;5075746;28;20040;-89
2023/03/19 06:35:02;;;;;;;9.25;4.55;;;10.80;99.90;;;;;;5075657;28;20092;-88
2023/03/19 06:37:27;;;;;;;9.30;4.78;;;10.80;99.90;;;;;;5075831;28;20036;-89
2023/03/19 06:39:56;;;;;;;9.43;4.55;;;10.80;99.90;;;;;;5091998;28;20088;-89
2023/03/19 06:42:21;;;;;;;9.13;4.95;;;10.80;99.90;;;;;;5074522;28;20039;-89
2023/03/19 06:44:47;;;;;;;10.00;4.60;;;10.80;99.90;;;;;;5074926;28;20040;-89
2023/03/19 06:47:13;;;;;;;9.60;5.10;;;10.90;99.90;;;;;;5074440;28;20401;-89
2023/03/19 06:49:39;;;;;;;9.90;4.85;;;10.80;99.90;;;;;;5074287;28;20135;-89
2023/03/19 06:52:05;;;;;;;9.35;5.50;;;10.90;99.90;;;;;;5075589;28;20508;-90
2023/03/19 06:54:31;;;;;;;9.73;5.53;;;10.90;99.90;;;;;;5075248;28;20043;-90
2023/03/19 06:56:58;;;;;;;11.27;5.45;;;10.90;99.90;;;;;;5076065;28;20044;-90
2023/03/19 06:59:24;;;;;;;10.13;5.72;;;10.90;99.90;;;;;;5092489;28;20075;-90
2023/03/19 07:01:49;;;;;;;10.98;5.82;;;11.00;99.90;;;;;;5074854;28;20036;-90
2023/03/19 07:04:15;;;;;;;10.63;5.78;;;11.00;99.90;;;;;;5091905;28;20100;-89
2023/03/19 07:06:41;;;;;;;9.75;5.95;;;11.00;99.90;;;;;;5074694;28;20459;-89
2023/03/19 07:09:07;;;;;;;11.70;6.32;;;11.00;99.90;;;;;;5074386;28;20444;-90
2023/03/19 07:11:33;;;;;;;12.32;6.43;;;11.00;99.90;;;;;;5087725;28;20040;-89
2023/03/19 07:13:58;;;;;;;11.48;6.25;;;11.00;99.90;;;;;;5100540;28;20033;-89
2023/03/19 07:16:24;;;;;;;10.82;6.45;;;11.00;99.90;;;;;;5096267;28;20040;-89
2023/03/19 07:18:50;;;;;;;12.00;6.10;;;11.00;99.90;;;;;;5081745;28;20131;-89
2023/03/19 07:21:15;;;;;;;11.20;5.78;;;11.10;99.90;;;;;;5061937;28;20060;-89
2023/03/19 07:23:41;;;;;;;11.32;5.90;;;11.10;99.90;;;;;;5076567;28;20033;-90
2023/03/19 07:26:07;;;;;;;10.15;5.50;;;11.10;99.90;;;;;;5086168;28;20119;-88
2023/03/19 07:28:33;;;;;;;10.63;5.28;;;11.10;99.90;;;;;;5091385;28;20061;-89
2023/03/19 07:30:59;;;;;;;10.45;6.18;;;11.20;99.90;;;;;;5091067;28;20580;-89
2023/03/19 07:33:25;;;;;;;10.88;5.90;;;11.20;99.90;;;;;;5090790;28;20090;-89
2023/03/19 07:35:51;;;;;;;10.55;6.03;;;11.20;99.90;;;;;;5091404;28;20075;-90
2023/03/19 07:38:16;;;;;;;11.05;6.95;;;11.30;99.90;;;;;;5074231;28;20119;-90
2023/03/19 07:40:42;;;;;;;11.25;6.57;;;11.20;99.90;;;;;;5091171;28;20040;-90
2023/03/19 07:43:08;;;;;;;13.07;7.13;;;11.30;99.90;;;;;;5091051;28;20040;-90
2023/03/19 07:45:34;;;;;;;12.50;7.63;;;11.30;99.90;;;;;;5090602;28;20040;-90
2023/03/19 07:48:02;;;;;;;13.70;8.20;;;11.30;99.90;;;;;;5091315;28;20137;-90
2023/03/19 07:50:31;;;;;;;15.73;8.05;;;11.40;99.90;;;;;;5073380;28;20158;-90
2023/03/19 07:52:57;;;;;;;12.82;7.78;;;11.40;99.90;;;;;;5072894;28;20040;-90
2023/03/19 07:55:22;;;;;;;12.82;7.75;;;11.40;99.90;;;;;;5072714;28;20058;-89
2023/03/19 07:57:49;;;;;;;13.95;7.80;;;11.40;99.90;;;;;;5072162;28;20036;-90
2023/03/19 08:00:16;;;;;;;14.15;8.43;;;11.40;99.90;;;;;;5072955;28;20160;-89
2023/03/19 08:02:41;;;;;;;14.43;8.02;;;11.40;99.90;;;;;;5073535;28;20032;-90
2023/03/19 08:05:08;;;;;;;12.65;7.88;;;11.50;99.90;;;;;;5073671;28;20131;-90
2023/03/19 08:07:35;;;;;;;13.50;8.18;;;11.50;99.90;;;;;;5073533;28;20044;-90
2023/03/19 08:10:02;;;;;;;14.75;8.13;;;11.50;99.90;;;;;;5090100;28;20712;-90
2023/03/19 08:12:28;;;;;;;16.75;9.20;;;11.50;99.90;;;;;;5073423;28;20036;-90
2023/03/19 08:14:54;;;;;;;14.05;8.77;;;11.50;99.90;;;;;;5072572;28;20051;-90
2023/03/19 08:17:20;;;;;;;17.02;9.00;;;11.50;99.90;;;;;;5073719;28;20584;-90
2023/03/19 08:19:46;;;;;;;14.80;9.10;;;11.50;99.90;;;;;;5072688;28;20040;-90
2023/03/19 08:22:12;;;;;;;15.30;8.98;;;11.50;99.90;;;;;;5072965;28;20561;-90
2023/03/19 08:24:38;;;;;;;14.77;9.15;;;11.50;99.90;;;;;;5073644;28;20035;-90
2023/03/19 08:27:03;;;;;;;15.77;9.05;;;11.60;99.90;;;;;;5072845;28;20048;-89
2023/03/19 08:29:29;;;;;;;14.45;9.82;;;11.60;99.90;;;;;;5066068;28;20055;-90
2023/03/19 08:31:57;;;;;;;17.35;9.82;;;11.60;99.90;;;;;;5071960;28;20097;-89
2023/03/19 08:34:23;;;;;;;15.05;9.88;;;11.70;99.90;;;;;;5088723;28;20123;-90
2023/03/19 08:36:49;;;;;;;16.52;9.75;;;11.70;99.90;;;;;;5072532;28;20119;-90
2023/03/19 08:39:14;;;;;;;13.77;8.43;;;11.70;99.90;;;;;;5088659;28;20040;-90
2023/03/19 08:41:40;;;;;;;14.80;9.13;;;11.80;99.90;;;;;;5090235;28;20047;-90
2023/03/19 08:44:05;;;;;;;14.80;9.27;;;11.70;99.90;;;;;;5072708;28;20044;-91
2023/03/19 08:46:32;;;;;;;13.93;9.18;;;11.70;99.90;;;;;;5073740;28;20083;-90
2023/03/19 08:48:58;;;;;;;13.25;8.95;;;11.70;99.90;;;;;;5072559;28;20047;-90
2023/03/19 08:51:25;;;;;;;15.20;10.05;;;11.70;99.90;;;;;;5073373;28;20524;-90
2023/03/19 08:53:51;;;;;;;16.42;10.98;;;11.70;99.90;;;;;;5089040;28;20122;-89
2023/03/19 08:56:17;;;;;;;16.80;10.25;;;11.80;99.90;;;;;;5070424;28;20444;-90
2023/03/19 08:58:44;;;;;;;15.57;10.77;;;12.00;99.90;;;;;;5088970;28;20086;-90
2023/03/19 09:01:12;;;;;;;16.50;11.07;;;12.00;99.90;;;;;;5071036;28;20065;-90
2023/03/19 09:03:40;;;;;;;14.38;9.75;;;12.10;99.90;;;;;;5089306;28;20040;-90
2023/03/19 09:06:08;;;;;;;15.57;10.40;;;12.10;99.90;;;;;;5072872;28;20032;-89
2023/03/19 09:08:35;;;;;;;14.90;9.98;;;12.10;99.90;;;;;;5072594;28;20540;-89
2023/03/19 09:11:01;;;;;;;14.90;9.02;;;12.10;99.90;;;;;;5070636;28;20036;-89
2023/03/19 09:13:27;;;;;;;15.55;9.70;;;12.00;99.90;;;;;;5103728;28;20036;-89
2023/03/19 09:15:53;;;;;;;15.65;9.70;;;12.00;99.90;;;;;;5088757;28;20032;-91
2023/03/19 09:18:24;;;;;;;16.95;10.20;;;12.00;99.90;;;;;;5072481;28;20036;-89
2023/03/19 09:20:50;;;;;;;15.20;9.60;;;12.00;99.90;;;;;;5086004;28;20049;-91
2023/03/19 09:23:16;;;;;;;14.00;8.82;;;12.00;99.90;;;;;;5063290;28;20075;-89
2023/03/19 09:25:41;;;;;;;13.82;8.50;;;12.00;99.90;;;;;;5062445;28;20040;-89
2023/03/19 09:28:07;;;;;;;14.68;8.90;;;11.90;99.90;;;;;;5079593;28;20035;-88
2023/03/19 09:30:33;;;;;;;14.25;9.38;;;12.00;99.90;;;;;;5076865;28;20441;-90
2023/03/19 09:32:59;;;;;;;16.75;9.00;;;12.00;99.90;;;;;;5063307;28;20062;-90
2023/03/19 09:35:29;;;;;;;14.18;9.27;;;12.00;99.90;;;;;;5062344;28;20054;-90
2023/03/19 09:37:59;;;;;;;13.25;7.70;;;12.10;99.90;;;;;;5096654;28;20071;-89
2023/03/19 09:40:28;;;;;;;13.73;7.97;;;12.10;99.90;;;;;;5080493;28;20032;-88
2023/03/19 09:43:18;;;;;;;15.95;8.27;;;12.20;99.90;;;;;;5064450;28;20048;-88
2023/03/19 09:45:46;;;;;;;13.23;7.50;;;12.20;99.90;;;;;;5082691;28;20047;-89
2023/03/19 09:48:17;;;;;;;13.77;7.68;;;12.20;99.90;;;;;;5079820;28;20049;-89
2023/03/19 09:50:44;;;;;;;13.80;7.80;;;12.30;99.90;;;;;;5067941;28;20040;-89
2023/03/19 09:53:36;;;;;;;15.38;8.65;;;12.30;99.90;;;;;;5087992;28;20032;-89
2023/03/19 09:56:06;;;;;;;13.68;7.40;;;12.30;99.90;;;;;;5060108;28;20044;-91
2023/03/19 09:58:35;;;;;;;12.85;8.10;;;12.50;99.90;;;;;;5072806;28;20439;-90
2023/03/19 10:01:01;;;;;;;12.98;8.02;;;12.60;99.90;;;;;;5073223;28;20497;-89
2023/03/19 10:03:38;;;;;;;13.10;7.95;;;12.70;99.90;;;;;;5080900;28;20197;-89
2023/03/19 10:06:12;;;;;;;13.98;8.65;;;12.80;99.90;;;;;;5087609;28;20067;-90
2023/03/19 10:09:00;;;;;;;12.43;8.02;;;12.80;99.90;;;;;;5076229;28;20458;-91
2023/03/19 10:11:36;;;;;;;13.60;8.02;;;12.80;99.90;;;;;;5073635;28;20166;-90
2023/03/19 10:14:20;;;;;;;13.23;8.40;;;12.80;99.90;;;;;;5076584;28;20036;-91
2023/03/19 10:16:50;;;;;;;13.27;7.80;;;12.80;99.90;;;;;;5092182;28;20577;-90
2023/03/19 10:19:23;;;;;;;14.63;13.02;;;12.80;99.90;;;;;;5093068;28;20040;-90
2023/03/19 10:21:59;;;;;;;15.07;8.55;;;12.80;99.90;;;;;;5092100;28;20035;-90
2023/03/19 10:24:35;;;;;;;13.85;8.95;;;12.80;99.90;;;;;;5076396;28;20102;-90
2023/03/19 10:27:10;;;;;;;12.43;7.53;;;12.80;99.90;;;;;;5075905;28;20040;-90
2023/03/19 10:29:37;;;;;;;12.90;10.90;;;12.80;99.90;;;;;;5068193;28;20044;-90
2023/03/19 10:32:19;;;;;;;11.93;7.07;;;13.00;99.90;;;;;;5075848;28;20119;-89
2023/03/19 10:34:49;;;;;;;14.18;8.32;;;13.00;99.90;;;;;;5075402;28;20493;-91
2023/03/19 10:37:20;;;;;;;13.65;7.82;;;13.10;99.90;;;;;;5075820;28;20047;-90
2023/03/19 10:39:51;;;;;;;15.52;8.48;;;13.10;99.90;;;;;;5075293;28;20493;-90
2023/03/19 10:42:44;;;;;;;13.32;8.85;;;13.10;99.90;;;;;;5092736;28;20409;-91
2023/03/19 10:45:28;;;;;;;;;;;13.10;99.90;;;;;;5076420;28;20569;-90
2023/03/19 10:48:00;;;;;;;13.20;8.43;;;13.10;99.90;;;;;;5075148;28;19916;-90
2023/03/19 10:50:41;;;;;;;13.85;7.95;;;13.20;99.90;;;;;;5075690;28;20058;-90
2023/03/19 10:53:13;;;;;;;15.45;9.48;;;13.20;99.90;;;;;;5092140;28;20723;-91
2023/03/19 10:55:47;;;;;;;15.57;8.55;;;13.30;99.90;;;;;;5075489;28;20393;-91
2023/03/19 10:58:24;;;;;;;14.95;13.45;;;13.40;99.90;;;;;;5074108;28;20094;-90
2023/03/19 11:00:57;;;;;;;13.73;7.72;;;13.50;99.90;;;;;;5075054;28;20044;-91
2023/03/19 11:03:34;;;;;;;;;;;13.50;99.90;;;;;;5092304;28;20069;-90
2023/03/19 11:06:06;;;;;;;12.00;7.90;;;13.50;99.90;;;;;;5074860;28;19959;-91
2023/03/19 11:08:36;;;;;;;15.80;8.20;;;13.50;99.90;;;;;;5074856;28;20040;-90
2023/03/19 11:11:02;;;;;;;13.75;9.57;;;13.50;99.90;;;;;;5074503;28;20352;-90
2023/03/19 11:13:29;;;;;;;15.00;12.48;;;13.50;99.90;;;;;;5091226;28;20377;-90
2023/03/19 11:15:59;;;;;;;15.13;13.30;;;13.60;99.90;;;;;;5074502;28;20063;-91
2023/03/19 11:18:35;;;;;;;14.73;9.90;;;13.80;99.90;;;;;;5073236;28;20024;-91
2023/03/19 11:21:07;;;;;;;14.38;9.23;;;13.90;99.90;;;;;;5092323;28;20036;-92
2023/03/19 11:23:40;;;;;;;15.32;13.38;;;13.90;99.90;;;;;;5074738;28;20503;-91
2023/03/19 11:26:06;;;;;;;15.23;9.77;;;14.20;99.90;;;;;;5092163;28;20487;-91
2023/03/19 11:28:36;;;;;;;14.63;9.07;;;14.40;99.90;;;;;;5091026;28;20086;-91
2023/03/19 11:31:18;;;;;;;15.57;13.93;;;14.40;99.90;;;;;;5091616;28;20051;-91
2023/03/19 11:34:21;;;;;;;15.20;13.63;;;14.50;99.90;;;;;;5092338;28;20039;-91
2023/03/19 11:36:57;;;;;;;16.13;9.38;;;14.50;99.90;;;;;;5091539;28;20121;-91
2023/03/19 11:39:27;;;;;;;12.60;8.10;;;14.50;99.90;;;;;;5074475;28;20547;-91
2023/03/19 11:42:18;;;;;;;14.65;12.65;;;14.50;99.90;;;;;;5090238;28;20036;-91
2023/03/19 11:45:09;;;;;;;18.08;12.25;;;14.70;99.90;;;;;;5074778;28;20043;-91
2023/03/19 11:48:13;;;;;;;14.75;13.10;;;14.80;99.90;;;;;;5073813;28;20044;-92
2023/03/19 11:50:43;;;;;;;;;;;14.90;99.90;;;;;;5091652;28;20046;-92
2023/03/19 11:53:48;;;;;;;13.90;9.63;;;15.00;99.90;;;;;;5074124;28;19924;-91
2023/03/19 11:56:43;;;;;;;14.82;9.43;;;15.10;99.90;;;;;;5074814;28;20072;-91
2023/03/19 11:59:59;;;;;;;16.00;14.40;;;15.30;99.90;;;;;;5088746;28;20491;-91
2023/03/19 12:02:38;;;;;;;15.90;13.35;;;15.50;99.90;;;;;;5060671;28;20116;-92
2023/03/19 12:05:19;;;;;;;14.30;12.80;;;15.50;97.80;;;;;;5066036;28;20486;-92
2023/03/19 12:07:56;;;;;;;17.20;13.73;;;15.70;96.20;;;;;;5080424;28;20036;-90
2023/03/19 12:10:32;;;;;;;14.63;9.50;;;15.90;98.60;;;;;;5065943;28;20040;-89
2023/03/19 12:12:58;;;;;;;14.50;11.82;;;15.90;97.40;;;;;;5080043;28;20043;-92
2023/03/19 12:15:57;;;;;;;14.50;12.32;;;15.90;94.30;;;;;;5080628;28;20115;-91
2023/03/19 12:18:22;;;;;;;15.32;13.45;;;16.10;93.20;;;;;;5062580;28;20067;-89
2023/03/19 12:21:02;;;;;;;15.43;10.43;;;16.00;92.40;;;;;;5097676;28;20079;-92
2023/03/19 12:23:58;;;;;;;16.15;10.38;;;16.10;93.90;;;;;;5091303;28;20093;-91
2023/03/19 12:26:46;;;;;;;15.10;13.50;;;16.10;94.30;;;;;;5104830;28;20044;-90
2023/03/19 12:29:38;;;;;;;16.25;14.60;;;16.20;93.30;;;;;;5072741;28;20075;-92
2023/03/19 12:32:48;;;;;;;15.05;12.80;;;16.30;92.00;;;;;;5073226;28;20036;-91
2023/03/19 12:35:17;;;;;;;15.25;13.20;;;16.50;90.20;;;;;;5046938;28;20127;-91
2023/03/19 12:38:00;;;;;;;14.45;12.48;;;16.50;90.60;;;;;;5080430;28;20039;-91
2023/03/19 12:41:02;;;;;;;15.45;10.85;;;16.70;90.60;;;;;;5064181;28;20035;-92
2023/03/19 12:44:02;;;;;;;13.80;9.77;;;16.80;90.80;;;;;;5079781;28;20046;-91
2023/03/19 12:46:54;;;;;;;15.60;13.35;;;16.80;88.90;;;;;;5096550;28;20051;-90
2023/03/19 12:49:39;;;;;;;12.93;11.35;;;16.90;89.00;;;;;;5064160;28;20410;-91